Time;durP1;ratioP1;P1;durP2;ratioP2;P2;SDS_P1;SDS_P2;PMS_P1;PMS_P2;Temp;Humidity;BMP_temperature;BMP_pressure;BME280_temperature;BME280_humidity;BME280_pressure;Samples;Min_cycle;Max_cycle;Signal;HPM_P1;HPM_P2
2020/12/15 00:01:03;;;;;;;19.70;12.10;;;;;;;9.05;93.18;100630.50;4991798;28;20458;-80
2020/12/15 00:03:29;;;;;;;19.20;11.90;;;;;;;9.04;92.92;100636.47;4980484;28;20289;-78
2020/12/15 00:05:54;;;;;;;16.25;10.13;;;;;;;9.09;92.67;100634.88;4981725;28;20039;-79
2020/12/15 00:08:20;;;;;;;16.75;9.45;;;;;;;9.05;92.79;100638.19;4976134;28;20101;-79
2020/12/15 00:10:46;;;;;;;15.85;9.77;;;;;;;8.99;92.94;100638.91;4985230;28;20026;-81
2020/12/15 00:13:11;;;;;;;13.35;8.85;;;;;;;9.00;93.02;100629.53;4977984;28;20041;-81
2020/12/15 00:15:36;;;;;;;16.53;10.20;;;;;;;9.01;93.02;100621.88;4983716;28;20031;-80
2020/12/15 00:18:01;;;;;;;19.20;9.57;;;;;;;9.02;92.77;100618.47;4981510;28;20281;-78
2020/12/15 00:20:27;;;;;;;16.15;9.18;;;;;;;8.95;93.30;100615.72;4977206;28;20523;-79
2020/12/15 00:22:52;;;;;;;14.25;9.15;;;;;;;8.96;93.05;100607.22;4982632;28;20027;-78
2020/12/15 00:25:17;;;;;;;17.77;11.25;;;;;;;8.88;93.26;100604.47;4988562;28;20030;-80
2020/12/15 00:27:45;;;;;;;15.48;10.48;;;;;;;8.92;93.20;100610.53;4980054;28;20026;-79
2020/12/15 00:30:10;;;;;;;18.00;10.80;;;;;;;8.93;93.30;100604.56;4985041;28;20022;-80
2020/12/15 00:32:35;;;;;;;15.20;10.90;;;;;;;8.90;93.38;100605.34;4980046;28;20071;-78
2020/12/15 00:35:01;;;;;;;17.00;10.60;;;;;;;8.94;93.27;100606.31;4985408;28;20109;-79
2020/12/15 00:37:26;;;;;;;22.20;10.23;;;;;;;8.92;93.37;100605.41;4977671;28;20092;-78
2020/12/15 00:39:51;;;;;;;16.50;10.60;;;;;;;8.97;93.31;100608.94;4988147;28;20270;-79
2020/12/15 00:42:17;;;;;;;15.83;11.77;;;;;;;8.90;93.42;100599.38;4976504;28;20026;-78
2020/12/15 00:44:42;;;;;;;17.08;11.35;;;;;;;8.87;93.75;100602.72;4983980;28;20118;-80
2020/12/15 00:47:07;;;;;;;16.50;10.93;;;;;;;8.90;93.55;100607.94;4985312;28;20083;-80
2020/12/15 00:49:32;;;;;;;15.80;12.20;;;;;;;8.93;93.65;100595.19;4979978;28;20395;-78
2020/12/15 00:51:57;;;;;;;15.63;11.37;;;;;;;8.89;93.72;100601.06;4982756;28;20289;-81
2020/12/15 00:54:23;;;;;;;14.13;10.27;;;;;;;8.92;93.75;100598.59;4981145;28;20087;-79
2020/12/15 00:56:48;;;;;;;18.20;11.33;;;;;;;8.87;93.63;100602.72;4978754;28;20651;-81
2020/12/15 00:59:13;;;;;;;19.33;11.33;;;;;;;8.90;93.60;100610.47;4983771;28;20289;-80
2020/12/15 01:01:39;;;;;;;17.07;11.97;;;;;;;8.89;93.57;100611.31;4979703;28;20157;-78
2020/12/15 01:04:04;;;;;;;16.97;11.03;;;;;;;8.94;93.48;100598.63;4981140;28;20281;-81
2020/12/15 01:06:29;;;;;;;16.60;11.70;;;;;;;8.89;93.54;100600.19;4979928;28;20381;-80
2020/12/15 01:08:54;;;;;;;22.65;12.32;;;;;;;8.90;93.59;100592.56;4978727;28;20285;-80
2020/12/15 01:11:20;;;;;;;16.93;10.70;;;;;;;8.95;93.30;100595.22;4979566;28;20027;-79
2020/12/15 01:13:45;;;;;;;19.07;10.77;;;;;;;8.90;93.58;100594.25;4984453;28;20277;-80
2020/12/15 01:16:11;;;;;;;18.20;10.63;;;;;;;8.93;93.34;100578.94;4976379;28;20278;-80
2020/12/15 01:18:36;;;;;;;18.10;10.18;;;;;;;8.92;93.20;100584.91;4980309;28;20030;-79
2020/12/15 01:21:02;;;;;;;13.60;9.02;;;;;;;8.88;93.40;100583.09;4975589;28;20042;-80
2020/12/15 01:23:28;;;;;;;;;;;;;;;8.86;93.65;100587.31;4977788;28;20084;-79
2020/12/15 01:25:53;;;;;;;16.10;8.70;;;;;;;8.79;93.40;100577.75;4983232;28;19914;-80
2020/12/15 01:28:18;;;;;;;17.23;9.88;;;;;;;8.84;93.48;100587.28;4979424;28;20054;-80
2020/12/15 01:30:44;;;;;;;14.90;8.83;;;;;;;8.85;93.30;100590.69;4984094;28;20034;-79
2020/12/15 01:33:09;;;;;;;12.63;8.50;;;;;;;8.80;93.42;100590.59;4980936;28;20034;-79
2020/12/15 01:35:34;;;;;;;15.70;9.53;;;;;;;8.82;93.46;100601.72;4979297;28;20037;-79
2020/12/15 01:37:59;;;;;;;15.90;9.73;;;;;;;8.85;93.63;100600.94;4976750;28;20034;-80
2020/12/15 01:40:24;;;;;;;17.97;9.23;;;;;;;8.89;93.41;100605.31;4982909;28;20313;-79
2020/12/15 01:42:50;;;;;;;17.47;10.13;;;;;;;8.86;93.33;100600.13;4989169;28;20023;-79
2020/12/15 01:45:15;;;;;;;13.50;9.47;;;;;;;8.92;93.08;100595.16;4988952;28;20269;-80
2020/12/15 01:47:41;;;;;;;16.25;10.60;;;;;;;8.85;93.32;100601.81;4981732;28;20019;-80
2020/12/15 01:50:07;;;;;;;16.30;10.45;;;;;;;8.84;93.62;100609.47;4984773;28;20023;-80
2020/12/15 01:52:32;;;;;;;20.75;10.80;;;;;;;8.86;93.59;100605.25;4983972;28;20019;-79
2020/12/15 01:54:59;;;;;;;16.85;10.10;;;;;;;8.89;93.52;100618.13;4983320;28;20023;-79
2020/12/15 01:57:25;;;;;;;21.67;11.43;;;;;;;8.87;93.34;100614.66;4986315;28;20035;-81
2020/12/15 01:59:50;;;;;;;20.67;10.60;;;;;;;8.90;93.68;100617.31;4982836;28;20051;-80
2020/12/15 02:02:19;;;;;;;16.27;9.77;;;;;;;8.95;93.38;100614.03;4985222;28;20038;-82
2020/12/15 02:04:45;;;;;;;16.10;10.30;;;;;;;8.93;92.79;100609.69;4978733;28;20045;-81
2020/12/15 02:07:10;;;;;;;18.38;10.32;;;;;;;8.88;93.19;100618.97;4988504;28;20393;-80
2020/12/15 02:09:36;;;;;;;17.48;9.05;;;;;;;8.91;93.29;100606.22;4983917;28;20030;-80
2020/12/15 02:12:02;;;;;;;16.02;9.20;;;;;;;8.84;93.27;100610.31;4980754;28;20019;-80
2020/12/15 02:14:27;;;;;;;;;;;;;;;8.84;93.49;100609.47;4980934;28;20049;-79
2020/12/15 02:16:53;;;;;;;15.67;9.33;;;;;;;8.91;93.32;100611.34;4984010;28;20513;-81
2020/12/15 02:19:18;;;;;;;13.90;8.70;;;;;;;8.90;92.90;100613.03;4977294;28;20381;-80
2020/12/15 02:21:54;;;;;;;20.27;8.82;;;;;;;8.92;93.08;100615.66;4978787;28;20034;-80
2020/12/15 02:24:20;;;;;;;13.60;8.75;;;;;;;8.92;93.08;100620.78;4978654;28;20050;-80
2020/12/15 02:26:46;;;;;;;16.65;8.20;;;;;;;8.93;92.93;100622.50;4979745;28;20030;-81
2020/12/15 02:29:12;;;;;;;15.23;9.57;;;;;;;8.85;92.95;100624.88;4978632;28;20033;-80
2020/12/15 02:31:37;;;;;;;12.43;8.20;;;;;;;8.92;92.88;100625.88;4977761;28;20022;-80
2020/12/15 02:34:02;;;;;;;18.23;8.15;;;;;;;8.89;93.08;100623.25;4975506;28;20023;-80
2020/12/15 02:36:29;;;;;;;16.15;8.50;;;;;;;8.91;93.22;100621.59;4977854;28;20125;-80
2020/12/15 02:39:01;;;;;;;13.37;8.57;;;;;;;8.88;93.28;100621.53;4981890;28;20031;-81
2020/12/15 02:41:26;;;;;;;15.50;8.60;;;;;;;8.89;93.08;100625.81;4981631;28;20042;-81
2020/12/15 02:43:51;;;;;;;14.27;8.57;;;;;;;8.88;93.06;100624.09;4976443;28;20064;-80
2020/12/15 02:46:16;;;;;;;12.80;8.27;;;;;;;8.89;92.69;100625.81;4979317;28;20034;-79
2020/12/15 02:48:42;;;;;;;13.40;8.97;;;;;;;8.87;92.99;100624.91;4982120;28;20273;-80
2020/12/15 02:51:07;;;;;;;14.98;9.05;;;;;;;8.79;93.23;100632.38;4972930;28;20022;-82
2020/12/15 02:53:32;;;;;;;16.20;9.60;;;;;;;8.80;93.33;100646.06;4983553;28;20030;-81
2020/12/15 02:55:57;;;;;;;16.07;10.07;;;;;;;8.85;93.26;100642.78;4973212;28;20027;-81
2020/12/15 02:58:23;;;;;;;16.60;9.80;;;;;;;8.85;93.10;100649.63;4973629;28;20031;-80
2020/12/15 03:00:48;;;;;;;16.17;9.23;;;;;;;8.83;93.32;100646.16;4979885;28;20071;-80
2020/12/15 03:03:13;;;;;;;15.10;10.03;;;;;;;8.85;93.40;100664.97;4973801;28;20293;-80
2020/12/15 03:05:38;;;;;;;17.87;9.87;;;;;;;8.87;93.23;100658.22;4977750;28;20057;-82
2020/12/15 03:08:04;;;;;;;15.47;10.03;;;;;;;8.91;93.43;100660.88;4975073;28;20294;-81
2020/12/15 03:10:29;;;;;;;16.67;10.73;;;;;;;8.89;93.32;100669.34;4979483;28;20030;-80
2020/12/15 03:12:54;;;;;;;18.83;10.97;;;;;;;8.88;93.23;100667.63;4979156;28;20022;-79
2020/12/15 03:15:19;;;;;;;22.17;10.90;;;;;;;8.90;93.26;100659.16;4984782;28;20277;-81
2020/12/15 03:17:45;;;;;;;19.33;12.38;;;;;;;8.82;93.39;100670.88;4974689;28;20565;-80
2020/12/15 03:20:10;;;;;;;22.00;11.77;;;;;;;8.88;93.43;100663.38;4973620;28;20122;-80
2020/12/15 03:22:35;;;;;;;18.55;12.02;;;;;;;8.86;93.55;100671.84;4973287;28;20031;-81
2020/12/15 03:25:01;;;;;;;17.00;11.07;;;;;;;8.91;93.22;100667.72;4974652;28;20027;-80
2020/12/15 03:27:26;;;;;;;19.05;12.25;;;;;;;9.00;93.22;100671.38;4970848;28;20284;-80
2020/12/15 03:29:51;;;;;;;19.77;11.27;;;;;;;8.93;93.36;100669.47;4976231;28;20027;-81
2020/12/15 03:32:16;;;;;;;13.97;10.60;;;;;;;8.95;93.09;100665.28;4975919;28;20280;-80
2020/12/15 03:34:42;;;;;;;21.20;11.75;;;;;;;8.92;92.94;100664.31;4974836;28;20027;-81
2020/12/15 03:37:07;;;;;;;22.63;12.93;;;;;;;8.92;93.17;100661.75;4978484;28;20018;-79
2020/12/15 03:39:34;;;;;;;19.10;11.93;;;;;;;8.96;92.96;100654.19;4986639;28;20842;-81
2020/12/15 03:41:59;;;;;;;18.52;12.05;;;;;;;8.91;93.20;100654.91;4989085;28;20026;-81
2020/12/15 03:44:24;;;;;;;17.37;11.43;;;;;;;8.94;93.12;100653.28;4987517;28;20035;-82
2020/12/15 03:46:49;;;;;;;19.65;12.23;;;;;;;8.88;93.14;100644.56;4981592;28;20548;-82
2020/12/15 03:49:15;;;;;;;20.77;12.30;;;;;;;8.88;93.25;100649.69;4977732;28;20026;-81
2020/12/15 03:51:41;;;;;;;19.33;11.90;;;;;;;8.84;93.35;100646.19;4983590;28;20105;-80
2020/12/15 03:54:06;;;;;;;19.88;12.50;;;;;;;8.84;93.49;100650.44;4986920;28;20030;-79
2020/12/15 03:56:31;;;;;;;20.07;13.13;;;;;;;8.84;93.33;100653.00;4984779;28;20027;-80
2020/12/15 03:58:56;;;;;;;18.05;12.80;;;;;;;8.86;93.55;100646.22;4986402;28;20065;-80
2020/12/15 04:01:23;;;;;;;19.57;13.13;;;;;;;8.86;93.23;100654.78;4984376;28;20019;-81
2020/12/15 04:03:48;;;;;;;20.30;12.95;;;;;;;8.78;93.54;100656.28;4987280;28;20356;-79
2020/12/15 04:06:13;;;;;;;20.20;12.60;;;;;;;8.89;93.19;100651.44;4977825;28;20488;-82
2020/12/15 04:08:41;;;;;;;16.13;11.70;;;;;;;8.88;93.59;100654.81;4979396;28;20281;-81
2020/12/15 04:11:07;;;;;;;16.85;12.13;;;;;;;8.91;93.16;100660.03;4980692;28;20028;-80
2020/12/15 04:13:32;;;;;;;16.52;12.15;;;;;;;8.88;93.49;100652.25;4981967;28;20114;-81
2020/12/15 04:15:57;;;;;;;15.43;10.77;;;;;;;8.90;93.20;100653.16;4984832;28;20054;-81
2020/12/15 04:18:22;;;;;;;19.02;12.20;;;;;;;8.94;93.24;100652.41;4984171;28;20027;-80
2020/12/15 04:20:51;;;;;;;16.80;11.03;;;;;;;8.90;93.26;100650.59;4981620;28;20022;-79
2020/12/15 04:23:16;;;;;;;20.92;12.38;;;;;;;8.92;93.20;100654.94;4980533;28;20290;-81
2020/12/15 04:25:57;;;;;;;17.83;12.07;;;;;;;8.92;93.35;100656.63;4982899;28;20037;-81
2020/12/15 04:28:23;;;;;;;18.17;12.05;;;;;;;8.94;93.32;100657.53;4982876;28;20450;-80
2020/12/15 04:30:48;;;;;;;19.38;12.40;;;;;;;8.95;93.31;100666.97;4977776;28;20030;-80
2020/12/15 04:33:14;;;;;;;17.83;11.73;;;;;;;8.98;93.09;100667.03;4982174;28;20079;-80
2020/12/15 04:35:39;;;;;;;18.67;11.95;;;;;;;8.94;93.07;100665.22;4979181;28;20106;-80
2020/12/15 04:38:05;;;;;;;17.27;11.63;;;;;;;9.01;93.09;100667.13;4983927;28;20053;-81
2020/12/15 04:40:34;;;;;;;19.85;11.85;;;;;;;8.98;93.14;100667.03;4983678;28;20038;-82
2020/12/15 04:43:01;;;;;;;19.25;11.88;;;;;;;9.02;93.26;100671.41;4976097;28;20042;-81
2020/12/15 04:45:27;;;;;;;18.70;11.05;;;;;;;9.01;93.02;100674.81;4980503;28;20022;-79
2020/12/15 04:48:00;;;;;;;17.80;11.70;;;;;;;9.06;92.92;100673.22;4978324;28;20076;-81
2020/12/15 04:50:31;;;;;;;19.10;12.07;;;;;;;9.02;93.09;100674.84;4979498;28;20439;-81
2020/12/15 04:52:58;;;;;;;19.48;12.32;;;;;;;9.00;93.24;100671.38;4979142;28;20034;-81
2020/12/15 04:55:25;;;;;;;15.95;11.48;;;;;;;9.02;93.01;100661.16;4978573;28;20546;-79
2020/12/15 04:57:52;;;;;;;18.27;12.03;;;;;;;9.06;93.07;100675.78;4980256;28;20027;-80
2020/12/15 05:00:17;;;;;;;17.27;11.13;;;;;;;9.03;93.01;100665.47;4981084;28;20026;-79
2020/12/15 05:02:47;;;;;;;15.82;10.48;;;;;;;9.06;93.10;100670.66;4982535;28;20030;-80
2020/12/15 05:05:13;;;;;;;15.50;10.80;;;;;;;9.03;93.07;100660.34;4977535;28;20038;-80
2020/12/15 05:07:40;;;;;;;22.23;10.65;;;;;;;9.04;93.14;100662.06;4980301;28;20027;-81
2020/12/15 05:10:07;;;;;;;14.48;11.25;;;;;;;9.09;93.12;100667.31;4980874;28;20027;-80
2020/12/15 05:12:33;;;;;;;17.63;10.90;;;;;;;9.08;92.69;100669.00;4986745;28;20042;-80
2020/12/15 05:14:58;;;;;;;13.40;10.18;;;;;;;8.99;93.19;100672.22;4977960;28;20039;-82
2020/12/15 05:17:25;;;;;;;16.83;11.43;;;;;;;8.98;93.35;100677.28;4975957;28;20469;-80
2020/12/15 05:19:50;;;;;;;18.20;11.32;;;;;;;9.06;93.12;100673.22;4980500;28;20292;-80
2020/12/15 05:22:15;;;;;;;17.80;11.52;;;;;;;9.10;92.86;100671.63;4978907;28;20031;-79
2020/12/15 05:24:45;;;;;;;16.10;10.97;;;;;;;9.12;92.86;100668.31;4975652;28;20030;-80
2020/12/15 05:27:15;;;;;;;15.10;10.93;;;;;;;9.09;92.74;100665.63;4976657;28;20297;-80
2020/12/15 05:29:41;;;;;;;19.35;12.32;;;;;;;9.03;93.02;100670.59;4979542;28;20077;-80
2020/12/15 05:32:07;;;;;;;18.40;11.10;;;;;;;9.02;93.00;100679.97;4971859;28;20050;-81
2020/12/15 05:34:32;;;;;;;18.27;10.85;;;;;;;8.99;93.10;100677.34;4974796;28;20278;-80
2020/12/15 05:36:59;;;;;;;18.33;11.68;;;;;;;8.96;93.26;100690.06;4977359;28;20026;-80
2020/12/15 05:39:26;;;;;;;16.30;10.50;;;;;;;8.97;93.27;100688.38;4981417;28;20027;-80
2020/12/15 05:42:06;;;;;;;18.55;10.57;;;;;;;8.95;93.20;100696.00;4991477;28;20051;-81
2020/12/15 05:44:34;;;;;;;15.93;10.63;;;;;;;8.95;93.52;100695.13;4987741;28;20052;-80
2020/12/15 05:47:08;;;;;;;15.35;10.10;;;;;;;8.93;93.31;100681.44;4986537;28;20079;-80
2020/12/15 05:49:40;;;;;;;16.48;9.90;;;;;;;8.96;93.23;100686.63;4983098;28;20030;-80
2020/12/15 05:52:07;;;;;;;14.80;9.80;;;;;;;9.05;93.07;100685.19;4986150;28;20023;-82
2020/12/15 05:54:33;;;;;;;14.18;9.80;;;;;;;9.00;92.80;100673.94;4983464;28;20026;-81
2020/12/15 05:57:07;;;;;;;13.52;8.80;;;;;;;9.08;92.70;100678.41;4981421;28;20087;-80
2020/12/15 05:59:34;;;;;;;14.03;9.77;;;;;;;9.10;92.50;100682.72;4981562;28;20030;-80
2020/12/15 06:02:05;;;;;;;14.05;9.65;;;;;;;9.02;92.74;100679.09;4982009;28;20081;-81
2020/12/15 06:04:32;;;;;;;15.88;10.43;;;;;;;9.07;92.74;100679.22;4982736;28;20034;-80
2020/12/15 06:06:59;;;;;;;23.70;10.10;;;;;;;9.01;92.96;100677.38;4984504;28;20052;-80
2020/12/15 06:09:25;;;;;;;14.38;9.65;;;;;;;9.00;92.92;100679.06;4978063;28;20069;-79
2020/12/15 06:11:51;;;;;;;19.23;9.05;;;;;;;8.97;93.15;100685.81;4983125;28;20026;-81
2020/12/15 06:14:16;;;;;;;17.88;10.27;;;;;;;8.91;93.07;100690.75;4979323;28;20038;-81
2020/12/15 06:16:42;;;;;;;16.63;9.53;;;;;;;8.93;93.33;100700.22;4983818;28;20030;-81
2020/12/15 06:19:09;;;;;;;15.25;9.10;;;;;;;8.99;93.11;100691.84;4982080;28;20492;-80
2020/12/15 06:21:37;;;;;;;14.48;9.90;;;;;;;8.95;93.19;100701.13;4979609;28;20027;-81
2020/12/15 06:24:04;;;;;;;17.00;9.23;;;;;;;8.98;93.19;100700.34;4981653;28;20030;-82
2020/12/15 06:26:31;;;;;;;15.68;10.00;;;;;;;8.98;93.05;100698.66;4977193;28;20061;-80
2020/12/15 06:29:05;;;;;;;17.45;10.02;;;;;;;9.01;92.76;100703.00;4983418;28;20080;-80
2020/12/15 06:31:32;;;;;;;13.37;9.53;;;;;;;9.02;92.96;100704.72;4983833;28;20033;-80
2020/12/15 06:34:00;;;;;;;15.38;9.95;;;;;;;8.98;93.18;100708.03;4985365;28;20054;-80
2020/12/15 06:36:33;;;;;;;15.60;9.82;;;;;;;9.02;92.78;100705.59;4982481;28;20030;-81
2020/12/15 06:39:12;;;;;;;16.77;10.47;;;;;;;8.98;93.00;100695.22;4984051;28;20110;-80
2020/12/15 06:41:37;;;;;;;15.15;9.85;;;;;;;8.96;92.99;100702.88;4983036;28;20030;-80
2020/12/15 06:44:06;;;;;;;13.40;9.52;;;;;;;8.98;93.14;100701.22;4985689;28;20405;-80
2020/12/15 06:46:32;;;;;;;19.55;9.82;;;;;;;9.05;92.72;100705.69;4975277;28;20029;-80
2020/12/15 06:48:57;;;;;;;12.73;8.65;;;;;;;9.07;92.58;100700.59;4978050;28;20022;-80
2020/12/15 06:51:27;;;;;;;15.52;9.50;;;;;;;9.06;92.80;100703.97;4980778;28;20019;-80
2020/12/15 06:54:00;;;;;;;19.17;10.15;;;;;;;9.06;92.89;100706.53;4977864;28;20054;-80
2020/12/15 06:56:26;;;;;;;15.77;9.83;;;;;;;9.03;92.63;100709.03;4974600;28;20023;-80
2020/12/15 06:59:05;;;;;;;15.45;9.63;;;;;;;8.97;93.06;100714.84;4977952;28;20103;-80
2020/12/15 07:01:31;;;;;;;18.08;9.80;;;;;;;8.94;93.08;100717.34;4976785;28;20023;-80
2020/12/15 07:03:58;;;;;;;16.63;10.38;;;;;;;8.94;93.24;100721.59;4973839;28;20076;-78
2020/12/15 07:06:24;;;;;;;17.52;9.77;;;;;;;8.92;93.14;100718.13;4977153;28;20088;-80
2020/12/15 07:08:57;;;;;;;17.42;10.57;;;;;;;8.90;92.97;100725.75;4977936;28;20026;-81
2020/12/15 07:11:26;;;;;;;16.70;9.82;;;;;;;8.89;93.15;100718.91;4980089;28;20031;-81
2020/12/15 07:14:03;;;;;;;15.65;9.80;;;;;;;8.89;93.40;100733.41;4977685;28;20705;-80
2020/12/15 07:16:29;;;;;;;;;;;;;;;8.85;93.26;100734.16;4976651;28;20105;-82
2020/12/15 07:18:55;;;;;;;15.90;10.18;;;;;;;8.85;93.33;100735.00;4976160;28;19983;-79
2020/12/15 07:21:23;;;;;;;20.85;10.80;;;;;;;8.85;93.60;100727.31;4977280;28;20037;-79
2020/12/15 07:23:48;;;;;;;17.10;11.02;;;;;;;8.82;93.63;100726.38;4973560;28;20027;-80
2020/12/15 07:26:18;;;;;;;15.93;10.13;;;;;;;8.82;93.80;100750.28;4978602;28;20456;-79
2020/12/15 07:28:46;;;;;;;14.57;10.07;;;;;;;8.82;93.77;100750.28;4979175;28;20026;-80
2020/12/15 07:31:12;;;;;;;16.77;10.50;;;;;;;8.87;93.28;100737.63;4978625;28;20034;-79
2020/12/15 07:33:39;;;;;;;15.45;10.50;;;;;;;8.87;93.44;100740.19;4986973;28;20022;-81
2020/12/15 07:36:17;;;;;;;16.95;11.15;;;;;;;8.87;93.26;100746.16;4986108;28;20027;-81
2020/12/15 07:38:44;;;;;;;17.67;10.88;;;;;;;8.89;93.32;100746.22;4982807;28;20479;-79
2020/12/15 07:41:16;;;;;;;18.13;11.25;;;;;;;8.94;93.33;100747.22;4982747;28;20703;-79
2020/12/15 07:43:55;;;;;;;20.83;10.23;;;;;;;8.92;93.04;100764.22;4983046;28;20026;-79
2020/12/15 07:46:25;;;;;;;17.10;10.40;;;;;;;8.89;93.12;100769.25;5000958;28;20034;-80
2020/12/15 07:48:52;;;;;;;18.25;10.13;;;;;;;8.85;93.26;100780.25;5003767;28;20052;-80
2020/12/15 07:51:18;;;;;;;16.85;10.18;;;;;;;8.91;92.83;100783.84;4998891;28;20105;-80
2020/12/15 07:53:50;;;;;;;16.50;9.63;;;;;;;8.85;93.06;100787.94;4999499;28;20386;-80
2020/12/15 07:56:16;;;;;;;14.93;9.38;;;;;;;8.86;93.13;100787.09;4995390;28;20472;-80
2020/12/15 07:58:43;;;;;;;25.00;11.73;;;;;;;8.87;93.41;100786.28;4992146;28;20058;-80
2020/12/15 08:01:08;;;;;;;17.25;9.80;;;;;;;8.86;93.31;100795.66;4991171;28;20037;-80
2020/12/15 08:03:34;;;;;;;17.08;10.88;;;;;;;8.84;93.47;100791.31;4986890;28;20430;-80
2020/12/15 08:06:07;;;;;;;20.40;13.98;;;;;;;8.88;93.17;100798.28;4990897;28;20109;-78
2020/12/15 08:08:34;;;;;;;18.88;10.68;;;;;;;8.87;93.29;100801.66;4989790;28;20023;-80
2020/12/15 08:10:59;;;;;;;20.52;10.93;;;;;;;8.91;93.03;100806.91;4990764;28;20034;-79
2020/12/15 08:13:25;;;;;;;23.60;11.53;;;;;;;8.86;93.18;100805.03;4990038;28;20031;-78
2020/12/15 08:15:50;;;;;;;21.23;10.80;;;;;;;8.90;93.32;100801.75;4991165;28;20756;-79
2020/12/15 08:18:16;;;;;;;18.55;9.93;;;;;;;8.88;93.29;100790.59;4983516;28;20027;-80
2020/12/15 08:20:42;;;;;;;;;;;;;;;8.96;92.92;100807.91;4986207;28;20057;-79
2020/12/15 08:23:13;;;;;;;18.58;10.57;;;;;;;8.95;92.83;100815.56;4986151;28;20298;-79
2020/12/15 08:25:44;;;;;;;21.38;11.60;;;;;;;8.92;93.01;100821.47;4987354;28;20030;-79
2020/12/15 08:28:21;;;;;;;20.05;11.77;;;;;;;8.89;93.05;100831.63;4992283;28;20407;-79
2020/12/15 08:30:47;;;;;;;22.80;12.77;;;;;;;8.97;92.99;100830.16;4984120;28;20018;-79
2020/12/15 08:33:20;;;;;;;;;;;;;;;8.95;92.68;100834.34;4987100;28;20018;-80
2020/12/15 08:35:45;;;;;;;16.17;10.70;;;;;;;9.00;92.74;100837.91;4978261;28;19914;-79
2020/12/15 08:38:11;;;;;;;15.45;10.90;;;;;;;8.95;92.93;100847.16;4982686;28;20086;-79
2020/12/15 08:40:36;;;;;;;17.35;10.57;;;;;;;9.00;92.81;100847.31;4984268;28;20046;-81
2020/12/15 08:43:03;;;;;;;20.02;11.55;;;;;;;8.98;92.84;100846.38;4983826;28;20529;-81
2020/12/15 08:45:29;;;;;;;16.10;11.20;;;;;;;8.96;92.72;100843.78;4984758;28;20030;-80
2020/12/15 08:47:55;;;;;;;;;;;;;;;8.93;92.70;100846.25;4988281;28;20514;-79
2020/12/15 08:50:23;;;;;;;19.15;11.50;;;;;;;8.92;92.96;100847.06;4980247;28;19914;-80
2020/12/15 08:52:49;;;;;;;15.80;10.97;;;;;;;8.90;93.09;100842.72;4980583;28;20419;-81
2020/12/15 08:55:14;;;;;;;18.77;12.13;;;;;;;8.89;93.19;100849.56;4984526;28;20066;-80
2020/12/15 08:57:39;;;;;;;20.02;12.48;;;;;;;8.92;93.28;100856.47;4986859;28;20034;-80
2020/12/15 09:00:23;;;;;;;15.48;10.73;;;;;;;8.97;93.18;100866.00;4976831;28;20117;-80
2020/12/15 09:02:48;;;;;;;17.83;11.25;;;;;;;8.99;93.22;100871.19;4986195;28;20504;-79
2020/12/15 09:05:13;;;;;;;17.47;11.33;;;;;;;9.17;92.48;100876.00;4985423;28;20039;-80
2020/12/15 09:07:39;;;;;;;17.75;11.07;;;;;;;9.12;92.49;100875.00;4976846;28;20382;-80
2020/12/15 09:10:14;;;;;;;20.00;10.60;;;;;;;9.20;91.92;100882.09;4979043;28;20034;-80
2020/12/15 09:12:47;;;;;;;22.02;11.63;;;;;;;9.15;92.28;100873.41;4980598;28;20392;-79
2020/12/15 09:15:13;;;;;;;16.42;10.52;;;;;;;9.12;92.27;100870.75;4979061;28;20377;-81
2020/12/15 09:17:38;;;;;;;;;;;;;;;9.08;92.33;100865.47;4984796;28;20406;-80
2020/12/15 09:20:05;;;;;;;20.08;11.35;;;;;;;9.14;92.38;100869.09;4980811;28;20060;-79
2020/12/15 09:22:30;;;;;;;19.13;11.77;;;;;;;9.19;92.34;100872.66;4980151;28;20034;-79
2020/12/15 09:25:01;;;;;;;21.35;11.65;;;;;;;9.19;92.35;100877.78;4984179;28;20035;-80
2020/12/15 09:27:27;;;;;;;16.38;12.13;;;;;;;9.21;92.08;100881.25;4981454;28;20034;-79
2020/12/15 09:29:52;;;;;;;19.95;11.57;;;;;;;9.20;92.25;100883.78;4985197;28;20037;-78
2020/12/15 09:32:17;;;;;;;19.20;11.82;;;;;;;9.19;92.51;100893.16;4980257;28;20475;-79
2020/12/15 09:34:43;;;;;;;17.20;11.75;;;;;;;9.19;92.69;100897.44;4981797;28;20439;-78
2020/12/15 09:37:09;;;;;;;;;;;;;;;9.14;92.62;100904.97;4977883;28;20065;-80
2020/12/15 09:39:34;;;;;;;16.88;10.45;;;;;;;9.18;92.41;100913.63;4979749;28;20379;-79
2020/12/15 09:42:03;;;;;;;17.33;11.25;;;;;;;9.16;92.06;100913.59;4976666;28;20522;-79
2020/12/15 09:44:29;;;;;;;19.85;11.30;;;;;;;9.21;91.86;100924.84;4977897;28;20044;-78
2020/12/15 09:46:55;;;;;;;19.23;11.90;;;;;;;9.27;92.21;100925.00;4982872;28;20026;-79
2020/12/15 09:49:20;;;;;;;20.25;12.05;;;;;;;9.23;92.04;100915.50;4977648;28;20557;-80
2020/12/15 09:51:46;;;;;;;19.40;12.32;;;;;;;9.25;92.11;100918.97;5000546;28;20034;-80
2020/12/15 09:54:11;;;;;;;21.45;12.80;;;;;;;9.34;92.10;100921.81;5001573;28;20036;-81
2020/12/15 09:56:42;;;;;;;19.45;12.65;;;;;;;9.34;92.05;100924.38;4995773;28;20054;-79
2020/12/15 09:59:08;;;;;;;20.70;12.45;;;;;;;9.44;91.36;100927.22;4988168;28;20504;-79
2020/12/15 10:01:33;;;;;;;;;;;;;;;9.35;91.58;100926.09;4985952;28;20519;-80
2020/12/15 10:03:59;;;;;;;23.02;13.05;;;;;;;9.34;92.14;100926.94;4992198;28;19914;-80
2020/12/15 10:06:24;;;;;;;20.07;12.80;;;;;;;9.40;91.53;100927.94;4989159;28;20035;-79
2020/12/15 10:08:49;;;;;;;19.65;11.85;;;;;;;9.43;91.54;100930.59;4991743;28;20055;-79
2020/12/15 10:11:18;;;;;;;21.23;12.83;;;;;;;9.47;91.09;100929.88;4986997;28;20033;-80
2020/12/15 10:13:43;;;;;;;18.02;11.90;;;;;;;9.45;91.09;100924.72;4985702;28;20349;-80
2020/12/15 10:16:09;;;;;;;23.98;13.65;;;;;;;9.42;91.25;100924.59;4979389;28;20459;-80
2020/12/15 10:18:35;;;;;;;27.45;13.35;;;;;;;9.48;91.45;100916.22;4992231;28;20030;-79
2020/12/15 10:21:00;;;;;;;20.83;13.13;;;;;;;9.45;91.79;100916.16;4984826;28;20507;-78
2020/12/15 10:23:26;;;;;;;23.02;13.23;;;;;;;9.43;91.66;100916.09;4979234;28;20088;-79
2020/12/15 10:25:51;;;;;;;21.60;12.80;;;;;;;9.52;91.51;100920.63;4990223;28;20026;-79
2020/12/15 10:28:16;;;;;;;20.42;12.55;;;;;;;9.59;90.90;100925.09;4981804;28;20308;-78
2020/12/15 10:30:45;;;;;;;18.20;12.33;;;;;;;9.52;91.07;100923.19;4980292;28;20057;-80
2020/12/15 10:33:11;;;;;;;19.17;12.55;;;;;;;9.46;91.67;100921.31;4982623;28;20278;-77
2020/12/15 10:35:37;;;;;;;20.42;12.30;;;;;;;9.45;91.83;100926.41;4971216;28;20141;-78
2020/12/15 10:38:02;;;;;;;21.35;12.90;;;;;;;9.43;91.94;100928.94;4978096;28;20066;-79
2020/12/15 10:40:27;;;;;;;22.33;13.73;;;;;;;9.43;92.10;100925.47;4979953;28;20026;-78
2020/12/15 10:42:52;;;;;;;19.50;12.20;;;;;;;9.45;92.23;100926.41;4984229;28;20117;-78
2020/12/15 10:45:18;;;;;;;17.45;12.45;;;;;;;9.44;92.13;100925.53;4986099;28;20034;-78
2020/12/15 10:47:43;;;;;;;20.45;13.95;;;;;;;9.31;92.50;100924.28;4977459;28;20092;-77
2020/12/15 10:50:10;;;;;;;18.48;12.90;;;;;;;9.36;92.50;100929.53;4986556;28;20426;-78
2020/12/15 10:52:35;;;;;;;18.67;13.63;;;;;;;9.33;92.72;100943.13;4987463;28;20038;-78
2020/12/15 10:55:02;;;;;;;23.95;13.57;;;;;;;9.43;92.70;100946.88;4974004;28;20027;-78
2020/12/15 10:57:27;;;;;;;23.23;13.75;;;;;;;9.40;92.51;100933.94;4987392;28;20030;-78
2020/12/15 10:59:58;;;;;;;23.30;14.67;;;;;;;9.45;92.30;100932.41;4983241;28;20101;-78
2020/12/15 11:02:23;;;;;;;25.85;14.88;;;;;;;9.42;92.26;100936.53;4980428;28;20329;-78
2020/12/15 11:04:49;;;;;;;22.85;14.30;;;;;;;9.46;92.39;100938.41;4988960;28;20052;-78
2020/12/15 11:07:14;;;;;;;22.13;13.43;;;;;;;9.46;92.55;100935.84;4988877;28;20037;-80
2020/12/15 11:09:40;;;;;;;21.25;13.82;;;;;;;9.46;92.74;100938.41;4991546;28;20034;-79
2020/12/15 11:12:06;;;;;;;23.15;13.27;;;;;;;9.54;92.30;100937.78;4982997;28;20056;-78
2020/12/15 11:14:34;;;;;;;20.73;13.18;;;;;;;9.67;92.11;100937.31;4985099;28;20033;-78
2020/12/15 11:17:01;;;;;;;21.27;13.50;;;;;;;9.67;91.78;100936.44;4975294;28;20106;-79
2020/12/15 11:19:26;;;;;;;21.33;13.88;;;;;;;9.63;91.75;100929.50;4983201;28;20045;-79